Latest Weather Observations for Bedout Island

IDW60801

Issued at 1:32 pm WST Wednesday 1 April 2015 (issued every 30 minutes, with the page automatically refreshed every 10 minutes)

About weather observations | Map of weather stations | Latest weather observations for WA | Other Formats
Station Details ID: 004100 Name: BEDOUT ISLAND Lat: -19.59 Lon: 119.10 Height: 8.6 m
Data from the previous 72 hours. | See also: Recent months for locations in Western Australia
Date/Time
WST
Temp
°C
App
Temp
°C
Dew
Point
Rel
Hum
%
Delta-T
°C
Wind Press
QNH
hPa
Press
MSL
hPa
Rain
since 9 am
mm
Dir
 
Spd
km/h
Gust
km/h
Spd
kts
Gust
kts
01/01:30pm 33.8 36.8 25.5 62 5.9 W 20 24 11 13 1011.0 - -
01/01:00pm 33.4 36.6 25.6 63 5.6 W 19 20 10 11 1011.5 - -
01/12:30pm 32.9 36.7 25.9 66 5.0 W 17 20 9 11 1011.9 - -
01/12:00pm 33.3 37.4 26.3 66 5.0 WSW 17 20 9 11 1012.3 1012.2 -
01/11:30am 32.3 36.3 25.1 65 5.1 WSW 13 15 7 8 1012.8 - -
01/11:00am 32.6 36.5 25.4 66 5.1 SW 15 17 8 9 1013.2 - -
01/10:30am 32.1 35.9 24.7 65 5.2 S 13 15 7 8 1013.6 - -
01/10:00am 32.3 36.0 25.1 65 5.1 S 15 19 8 10 1013.9 - -
01/09:30am 32.1 35.1 25.2 67 4.9 S 19 20 10 11 1014.1 - -
01/09:00am 31.7 34.9 25.8 71 4.2 SSW 20 24 11 13 1014.1 1014.0 -
01/08:30am 31.0 33.3 25.1 71 4.2 SSW 22 26 12 14 1014.0 - -
01/08:00am 30.2 32.1 25.0 73 3.7 SSW 24 26 13 14 1014.0 - -
01/07:30am 29.7 31.3 25.2 77 3.2 SSW 26 32 14 17 1013.7 - -
01/07:00am 28.9 30.2 25.3 81 2.5 SSW 28 33 15 18 1013.4 - -
01/06:30am 28.5 30.1 25.7 85 2.0 SSW 28 32 15 17 1013.1 - -
01/06:00am 28.7 30.3 25.7 84 2.1 SSW 28 32 15 17 1012.8 1012.7 -
01/05:30am 28.7 29.6 25.3 82 2.4 SW 30 33 16 18 1012.6 - -
01/05:00am 28.9 29.0 24.5 77 3.1 SW 32 35 17 19 1012.3 - -
01/04:30am 28.8 29.4 24.8 79 2.8 SW 30 33 16 18 1012.1 - -
01/04:00am 28.7 29.8 25.5 83 2.3 SW 30 32 16 17 1011.9 - -
01/03:30am 28.9 30.0 25.5 82 2.4 SW 30 33 16 18 1011.9 - -
01/03:00am 28.7 29.9 25.1 81 2.5 SW 28 32 15 17 1011.8 1011.7 -
01/02:30am 28.8 30.8 25.8 84 2.1 SW 26 30 14 16 1012.0 - -
01/02:00am 29.0 31.4 25.8 83 2.3 SW 24 28 13 15 1012.1 - -
01/01:30am 28.7 31.3 25.5 83 2.3 SW 22 26 12 14 1012.3 - -
01/01:00am 28.9 31.4 25.9 84 2.1 SW 24 26 13 14 1012.5 - -
01/12:30am 28.9 31.4 25.9 84 2.1 SW 24 26 13 14 1012.7 - -
01/12:00am 28.9 31.8 25.9 84 2.1 SW 22 26 12 14 1013.0 1012.9 -
 
Date/Time
WST
Temp
°C
App
Temp
°C
Dew
Point
Rel
Hum
%
Delta-T
°C
Wind Press
QNH
hPa
Press
MSL
hPa
Rain
since 9 am
mm
Dir
 
Spd
km/h
Gust
km/h
Spd
kts
Gust
kts
31/11:30pm 29.1 32.2 26.3 85 2.0 SW 22 24 12 13 1013.3 - -
31/11:00pm 29.0 32.0 26.2 85 2.0 SW 22 26 12 14 1013.4 - -
31/10:30pm 29.2 32.1 26.6 86 1.9 WSW 24 28 13 15 1013.4 - -
31/10:00pm 29.0 31.4 26.4 86 1.9 WSW 26 28 14 15 1013.4 - -
31/09:30pm 29.1 32.0 26.5 86 1.9 W 24 26 13 14 1013.6 - -
31/09:00pm 29.2 32.0 26.4 85 2.0 W 24 26 13 14 1013.6 1013.5 -
31/08:30pm 29.3 32.4 26.3 84 2.1 W 22 24 12 13 1013.5 - -
31/08:00pm 29.3 32.7 26.1 83 2.3 W 20 24 11 13 1013.2 - -
31/07:30pm 29.2 31.9 25.6 81 2.5 W 22 24 12 13 1012.9 - -
31/07:00pm 29.4 32.1 25.6 80 2.7 W 22 26 12 14 1012.7 - -
31/06:30pm 29.5 31.8 25.7 80 2.7 W 24 26 13 14 1012.3 - -
31/06:00pm 29.7 32.2 25.4 78 3.0 W 22 24 12 13 1011.9 1011.8 -
31/05:30pm 30.6 33.3 25.7 75 3.5 W 22 24 12 13 1011.6 - -
31/05:00pm 31.3 34.0 25.6 71 4.0 W 22 24 12 13 1011.7 - -
31/04:30pm 31.6 34.0 25.2 69 4.5 W 22 26 12 14 1011.5 - -
31/04:00pm 32.2 34.8 25.5 67 4.8 W 22 26 12 14 1011.4 - -
31/03:30pm 32.4 34.8 25.2 66 5.1 W 22 26 12 14 1011.4 - -
31/03:00pm 32.3 34.9 24.9 65 5.2 W 20 24 11 13 1011.3 1011.2 -
31/02:30pm 32.6 35.9 25.7 67 4.9 WSW 19 22 10 12 1011.4 - -
31/02:00pm 32.8 36.2 25.9 67 4.9 WSW 19 20 10 11 1011.8 - -
31/01:30pm 32.8 36.7 26.1 68 4.8 WSW 17 19 9 10 1012.1 - -
31/01:00pm 32.2 36.3 25.8 69 4.6 WSW 15 17 8 9 1012.3 - -
31/12:30pm 32.1 36.2 25.7 69 4.6 SW 15 17 8 9 1012.9 - -
31/12:00pm 32.6 37.6 26.6 70 4.3 SW 13 15 7 8 1013.3 1013.2 -
31/11:30am 32.0 36.5 25.8 69 4.4 SSW 13 15 7 8 1013.8 - -
31/11:00am 32.3 36.8 26.4 71 4.2 S 15 17 8 9 1014.3 - -
31/10:30am 32.4 37.3 26.9 73 4.0 SSE 15 17 8 9 1014.7 - -
31/10:00am 31.8 36.4 26.6 74 3.7 SSE 15 17 8 9 1014.7 - -
31/09:30am 31.3 36.3 26.6 76 3.4 SSE 13 17 7 9 1014.7 - -
31/09:00am 31.1 35.7 26.6 77 3.2 SSE 15 19 8 10 1014.5 1014.4 -
31/08:30am 30.6 34.2 26.1 77 3.2 SSW 19 20 10 11 1014.2 - -
31/08:00am 30.2 33.8 26.1 79 2.9 SW 19 20 10 11 1014.1 - -
31/07:30am 29.6 33.0 26.2 82 2.4 SW 20 24 11 13 1014.1 - -
31/07:00am 28.8 32.1 26.0 85 2.0 SW 20 24 11 13 1014.1 - -
31/06:30am 28.1 31.6 25.5 86 1.8 SW 17 19 9 10 1014.0 - -
31/06:00am 28.0 31.5 25.4 86 1.8 WSW 17 17 9 9 1013.8 1013.7 -
31/05:30am 28.2 31.4 25.6 86 1.8 WSW 19 20 10 11 1013.6 - -
31/05:00am 28.2 31.2 25.6 86 1.8 WSW 20 20 11 11 1013.7 - -
31/04:30am 28.3 31.5 25.9 87 1.7 WSW 20 22 11 12 1013.4 - -
31/04:00am 28.2 31.6 25.8 87 1.7 W 19 20 10 11 1013.1 - -
31/03:30am 28.1 31.6 25.5 86 1.8 W 17 19 9 10 1012.7 - -
31/03:00am 28.2 31.8 25.6 86 1.8 WNW 17 19 9 10 1012.6 1012.5 -
31/02:30am 28.6 32.0 25.8 85 2.0 WNW 19 20 10 11 1012.6 - -
31/02:00am 28.6 31.5 25.4 83 2.3 WNW 20 22 11 12 1012.8 - -
31/01:30am 28.5 31.5 25.3 83 2.2 WNW 19 22 10 12 1013.0 - -
31/01:00am 28.3 31.7 25.3 84 2.1 WNW 17 20 9 11 1013.1 - -
31/12:30am 28.3 32.2 25.5 85 2.0 NW 15 17 8 9 1013.1 - -
31/12:00am 28.0 31.9 25.4 86 1.8 NW 15 17 8 9 1013.2 1013.1 -
 
Date/Time
WST
Temp
°C
App
Temp
°C
Dew
Point
Rel
Hum
%
Delta-T
°C
Wind Press
QNH
hPa
Press
MSL
hPa
Rain
since 9 am
mm
Dir
 
Spd
km/h
Gust
km/h
Spd
kts
Gust
kts
30/11:30pm 28.0 32.2 25.4 86 1.8 NW 13 15 7 8 1013.2 - -
30/11:00pm 28.1 32.4 25.5 86 1.8 NW 13 15 7 8 1013.5 - -
30/10:30pm 28.1 33.0 25.3 85 2.0 NW 9 13 5 7 1013.7 - -
30/10:00pm 28.1 32.7 25.3 85 2.0 NW 11 13 6 7 1014.0 - -
30/09:30pm 28.5 32.8 25.5 84 2.1 NW 13 13 7 7 1014.3 - -
30/09:00pm 28.5 33.4 25.3 83 2.2 NW 9 11 5 6 1014.2 1014.1 -
30/08:30pm 28.6 33.5 25.2 82 2.4 NW 9 9 5 5 1014.1 - -
30/08:00pm 28.6 33.7 25.0 81 2.5 NW 7 9 4 5 1014.0 - -
30/07:30pm 28.7 33.6 24.7 79 2.8 NW 7 9 4 5 1013.7 - -
30/07:00pm 28.9 32.7 24.7 78 2.9 NW 13 13 7 7 1013.3 - -
30/06:30pm 29.0 33.3 24.3 76 3.3 NNE 9 11 5 6 1013.0 - -
30/06:00pm 29.3 33.9 24.2 74 3.5 NNE 7 9 4 5 1012.7 1012.6 -
30/05:30pm 29.7 34.0 24.3 73 3.8 NNE 9 11 5 6 1012.5 - -
30/05:00pm 30.2 34.8 24.8 73 3.8 NNE 9 11 5 6 1012.4 - -
30/04:30pm 30.4 34.8 24.5 70 4.1 NNE 9 11 5 6 1012.2 - -
30/04:00pm 30.8 35.1 24.2 68 4.6 NNE 9 11 5 6 1011.9 - -
30/03:30pm 31.2 35.4 24.1 66 4.9 NE 9 11 5 6 1011.7 - -
30/03:00pm 31.4 35.8 24.5 67 4.8 NE 9 11 5 6 1011.8 1011.7 -
30/02:30pm 31.2 36.3 25.5 71 4.0 NE 9 11 5 6 1011.5 - -
30/02:00pm 30.9 35.3 25.7 74 3.7 NE 13 15 7 8 1011.6 - -
30/01:30pm 31.5 36.4 25.8 72 4.1 NE 11 13 6 7 1011.9 - -
30/01:00pm 31.3 35.2 24.9 69 4.5 ENE 13 15 7 8 1012.0 - -
30/12:30pm 32.3 37.2 25.9 69 4.6 NE 11 13 6 7 1012.5 - -
30/12:00pm 31.9 36.0 25.7 69 4.4 ENE 15 17 8 9 1012.9 1012.8 -
30/11:30am 32.6 37.0 26.2 69 4.6 E 15 17 8 9 1013.1 - -
30/11:00am 31.5 34.7 25.8 72 4.1 ENE 20 24 11 13 1013.6 - -
30/10:30am 31.2 34.5 25.1 70 4.3 ENE 17 20 9 11 1013.6 - -
30/10:00am 30.7 34.0 25.1 72 3.9 ENE 17 20 9 11 1013.7 - -
30/09:30am 29.8 32.0 24.0 71 4.0 ENE 19 20 10 11 1014.1 - -
30/09:00am 30.2 32.2 23.9 69 4.4 NE 20 22 11 12 1014.1 1014.0 -
30/08:30am 30.1 31.3 23.8 69 4.4 NE 24 26 13 14 1013.9 - -
30/08:00am 29.7 30.6 23.4 69 4.3 NE 24 28 13 15 1014.0 - -
30/07:30am 29.4 30.5 23.6 71 4.0 NNE 24 26 13 14 1013.7 - -
30/07:00am 29.1 29.6 23.3 71 4.0 N 26 30 14 16 1013.2 - -
30/06:30am 29.1 28.7 23.1 70 4.1 NNE 30 33 16 18 1012.7 - -
30/06:00am 29.0 28.8 23.4 72 3.8 NNE 30 33 16 18 1012.4 1012.3 -
30/05:30am 29.0 28.3 22.5 68 4.4 N 30 35 16 19 1012.2 - -
30/05:00am 29.1 28.5 23.3 71 4.0 N 32 35 17 19 1011.9 - -
30/04:30am 28.7 29.5 23.8 75 3.4 N 26 30 14 16 1011.4 - -
30/04:00am 28.5 29.4 23.9 76 3.2 N 26 30 14 16 1011.0 - -
30/03:30am 28.4 28.8 23.8 76 3.2 N 28 33 15 18 1011.0 - -
30/03:00am 28.3 27.5 23.4 75 3.4 N 33 41 18 22 1011.1 1011.0 -
30/02:30am 28.5 26.2 23.4 74 3.5 N 41 48 22 26 1011.5 - -
30/02:00am 28.8 25.8 22.8 70 4.1 NNE 43 50 23 27 1011.9 - -
30/01:30am 29.0 25.2 23.0 70 4.1 NNE 48 57 26 31 1011.9 - -
30/01:00am 29.0 26.0 23.2 71 4.0 NNE 44 54 24 29 1012.2 - -
30/12:30am 28.9 25.9 23.1 71 4.0 NNE 44 54 24 29 1012.2 - -
30/12:00am 29.1 23.9 22.6 68 4.4 NNE 54 65 29 35 1012.2 1012.1 -
 
Date/Time
WST
Temp
°C
App
Temp
°C
Dew
Point
Rel
Hum
%
Delta-T
°C
Wind Press
QNH
hPa
Press
MSL
hPa
Rain
since 9 am
mm
Dir
 
Spd
km/h
Gust
km/h
Spd
kts
Gust
kts
29/11:44pm 28.9 24.6 22.9 70 4.1 NE 50 69 27 37 1011.8 - -
29/11:30pm 28.5 25.4 24.3 78 2.9 NE 48 57 26 31 1012.6 - -
29/11:00pm 28.2 24.8 23.8 77 3.0 NE 48 63 26 34 1013.3 - -
29/10:30pm 28.5 24.7 23.0 72 3.8 NE 48 57 26 31 1013.7 - -
29/10:00pm 27.8 25.3 24.0 80 2.6 NE 44 54 24 29 1013.8 - -
29/09:41pm 28.7 25.0 24.0 76 3.3 NE 50 72 27 39 1013.7 - -
29/09:30pm 29.0 25.9 24.3 76 3.3 NE 48 56 26 30 1013.7 - -
29/09:00pm 28.8 27.5 25.0 80 2.7 NE 41 46 22 25 1013.6 1013.5 -
29/08:30pm 28.9 27.5 24.9 79 2.8 ENE 41 46 22 25 1013.3 - -
29/08:00pm 28.6 28.2 24.6 79 2.8 ENE 35 41 19 22 1013.1 - -
29/07:30pm 28.7 26.6 23.8 75 3.4 ENE 41 48 22 26 1012.3 - -
29/07:00pm 28.9 26.7 23.6 73 3.6 ENE 41 46 22 25 1012.2 - -
29/06:30pm 28.3 26.2 23.7 76 3.2 NE 41 46 22 25 1011.7 - -
29/06:00pm 27.6 24.0 23.4 78 2.9 NE 48 57 26 31 1011.9 1011.8 -
29/05:30pm 27.0 22.2 22.6 77 3.0 NE 52 63 28 34 1011.7 - -
29/05:00pm 27.7 25.0 24.3 82 2.4 NE 46 56 25 30 1011.8 - -
29/04:30pm 25.9 22.5 23.2 85 1.8 NE 46 57 25 31 1012.1 - -
29/04:12pm 27.8 24.9 24.0 80 2.6 NE 46 65 25 35 1012.2 - -
29/04:00pm 27.7 26.3 24.3 82 2.4 NE 39 44 21 24 1012.0 - -
29/03:30pm 26.8 23.0 23.7 83 2.1 NNE 50 65 27 35 1011.9 - -
29/03:23pm 27.3 22.2 23.5 80 2.6 NNE 56 67 30 36 1011.7 - -
29/03:17pm 29.0 25.9 23.7 73 3.7 ENE 46 67 25 36 1011.6 - -
29/03:00pm 30.0 28.8 24.6 73 3.8 ENE 39 44 21 24 1011.0 1010.9 -
29/02:30pm 29.8 27.6 24.2 72 3.9 ENE 43 48 23 26 1010.9 - -
29/02:00pm 30.1 28.8 24.5 72 3.9 E 39 44 21 24 1010.7 - -

Other Formats:

Comma delimited format used in spreadsheet applications
http://www.bom.gov.au/fwo/IDW60801/IDW60801.94310.axf

JavaScript Object Notation format (JSON) in row-major order
http://www.bom.gov.au/fwo/IDW60801/IDW60801.94310.json